Time,TemperatureF,DewpointF,PressureIn,WindDirection,WindDirectionDegrees,WindSpeedMPH,WindSpeedGustMPH,Humidity,HourlyPrecipIn,Conditions,Clouds,dailyrainin,SoftwareType,DateUTC
2013-09-22 00:05:00,70.6,60.0,30.60,NW,306,0.0,-999.0,70,-99.99,,,0.00,weatherlink.com 1.10,2013-09-22 05:05:00,
2013-09-22 00:21:00,70.3,60.0,30.60,NW,315,0.0,-999.0,70,-99.99,,,0.00,weatherlink.com 1.10,2013-09-22 05:21:00,
2013-09-22 00:36:00,70.0,60.0,30.60,NW,311,1.0,-999.0,70,-99.99,,,0.00,weatherlink.com 1.10,2013-09-22 05:36:00,
2013-09-22 00:51:00,69.7,60.0,30.59,NW,311,0.0,-999.0,70,-99.99,,,0.00,weatherlink.com 1.10,2013-09-22 05:51:00,
2013-09-22 01:06:00,69.3,59.0,30.59,WNW,302,0.0,-999.0,70,-99.99,,,0.00,weatherlink.com 1.10,2013-09-22 06:06:00,
2013-09-22 01:21:00,69.0,59.0,30.59,NW,309,1.0,-999.0,70,-99.99,,,0.00,weatherlink.com 1.10,2013-09-22 06:21:00,
2013-09-22 01:36:00,68.3,58.0,30.60,NW,309,0.0,-999.0,70,-99.99,,,0.00,weatherlink.com 1.10,2013-09-22 06:36:00,
2013-09-22 01:51:00,67.8,58.0,30.60,NW,311,0.0,-999.0,70,-99.99,,,0.00,weatherlink.com 1.10,2013-09-22 06:51:00,
2013-09-22 02:06:00,67.4,57.0,30.60,NW,311,0.0,-999.0,70,-99.99,,,0.00,weatherlink.com 1.10,2013-09-22 07:06:00,
2013-09-22 02:21:00,66.9,57.0,30.60,NW,311,0.0,-999.0,71,-99.99,,,0.00,weatherlink.com 1.10,2013-09-22 07:21:00,
2013-09-22 02:36:00,66.1,56.0,30.60,NW,311,0.0,-999.0,71,-99.99,,,0.00,weatherlink.com 1.10,2013-09-22 07:36:00,
2013-09-22 02:51:00,65.5,56.0,30.60,NW,311,0.0,-999.0,71,-99.99,,,0.00,weatherlink.com 1.10,2013-09-22 07:51:00,
2013-09-22 03:06:00,65.0,55.0,30.60,NW,311,0.0,-999.0,71,-99.99,,,0.00,weatherlink.com 1.10,2013-09-22 08:06:00,
2013-09-22 03:21:00,64.8,55.0,30.60,NW,311,0.0,-999.0,71,-99.99,,,0.00,weatherlink.com 1.10,2013-09-22 08:21:00,
2013-09-22 03:36:00,64.2,55.0,30.59,NW,316,0.0,-999.0,71,-99.99,,,0.00,weatherlink.com 1.10,2013-09-22 08:36:00,
2013-09-22 03:51:00,64.0,54.0,30.59,NW,316,0.0,-999.0,71,-99.99,,,0.00,weatherlink.com 1.10,2013-09-22 08:51:00,
2013-09-22 04:06:00,63.7,54.0,30.59,NW,315,0.0,-999.0,71,-99.99,,,0.00,weatherlink.com 1.10,2013-09-22 09:06:00,
2013-09-22 04:21:00,63.6,54.0,30.59,NW,315,0.0,-999.0,71,-99.99,,,0.00,weatherlink.com 1.10,2013-09-22 09:21:00,
2013-09-22 04:36:00,63.2,54.0,30.59,NW,315,0.0,-999.0,71,-99.99,,,0.00,weatherlink.com 1.10,2013-09-22 09:36:00,
2013-09-22 04:51:00,63.0,53.0,30.59,NW,315,0.0,-999.0,71,-99.99,,,0.00,weatherlink.com 1.10,2013-09-22 09:51:00,
2013-09-22 05:06:00,62.7,53.0,30.59,NW,315,0.0,-999.0,71,-99.99,,,0.00,weatherlink.com 1.10,2013-09-22 10:06:00,
2013-09-22 05:21:00,62.5,53.0,30.59,NW,315,0.0,-999.0,71,-99.99,,,0.00,weatherlink.com 1.10,2013-09-22 10:21:00,
2013-09-22 05:36:00,62.1,53.0,30.59,NW,315,0.0,-999.0,71,-99.99,,,0.00,weatherlink.com 1.10,2013-09-22 10:36:00,
2013-09-22 05:51:00,61.8,52.0,30.60,NW,315,0.0,-999.0,71,-99.99,,,0.00,weatherlink.com 1.10,2013-09-22 10:51:00,
2013-09-22 06:06:00,61.4,52.0,30.60,NW,315,0.0,-999.0,71,-99.99,,,0.00,weatherlink.com 1.10,2013-09-22 11:06:00,
2013-09-22 06:21:00,61.2,52.0,30.60,NW,315,0.0,-999.0,71,-99.99,,,0.00,weatherlink.com 1.10,2013-09-22 11:21:00,
2013-09-22 06:36:00,60.5,51.0,30.60,NW,315,0.0,-999.0,70,-99.99,,,0.00,weatherlink.com 1.10,2013-09-22 11:36:00,
2013-09-22 06:51:00,60.3,50.0,30.60,NW,315,0.0,-999.0,70,-99.99,,,0.00,weatherlink.com 1.10,2013-09-22 11:51:00,
2013-09-22 07:06:00,59.9,50.0,30.61,NW,315,0.0,-999.0,70,-99.99,,,0.00,weatherlink.com 1.10,2013-09-22 12:06:00,
2013-09-22 07:21:00,59.7,50.0,30.61,NW,315,0.0,-999.0,70,-99.99,,,0.00,weatherlink.com 1.10,2013-09-22 12:21:00,
2013-09-22 07:36:00,59.5,50.0,30.61,NW,315,0.0,-999.0,70,-99.99,,,0.00,weatherlink.com 1.10,2013-09-22 12:36:00,
2013-09-22 07:51:00,60.4,51.0,30.61,NW,315,0.0,-999.0,70,-99.99,,,0.00,weatherlink.com 1.10,2013-09-22 12:51:00,
2013-09-22 08:06:00,62.0,52.0,30.62,NW,308,1.0,-999.0,70,-99.99,,,0.00,weatherlink.com 1.10,2013-09-22 13:06:00,
2013-09-22 08:21:00,62.9,53.0,30.62,NW,305,0.0,-999.0,71,-99.99,,,0.00,weatherlink.com 1.10,2013-09-22 13:21:00,
2013-09-22 08:35:00,65.0,55.0,30.63,NW,314,0.0,-999.0,71,-99.99,,,0.00,weatherlink.com 1.10,2013-09-22 13:35:00,
2013-09-22 08:50:00,66.7,57.0,30.63,NNW,331,2.0,-999.0,71,-99.99,,,0.00,weatherlink.com 1.10,2013-09-22 13:50:00,
2013-09-22 09:05:00,68.4,57.0,30.63,NW,319,1.0,-999.0,68,-99.99,,,0.00,weatherlink.com 1.10,2013-09-22 14:05:00,
2013-09-22 09:21:00,69.2,58.0,30.63,NNW,338,6.0,-999.0,67,-99.99,,,0.00,weatherlink.com 1.10,2013-09-22 14:21:00,
2013-09-22 09:36:00,70.6,58.0,30.64,NE,45,9.0,-999.0,65,-99.99,,,0.00,weatherlink.com 1.10,2013-09-22 14:36:00,
2013-09-22 09:51:00,71.7,59.0,30.64,North,360,5.0,-999.0,64,-99.99,,,0.00,weatherlink.com 1.10,2013-09-22 14:51:00,
2013-09-22 10:06:00,72.4,59.0,30.64,NNW,347,2.0,-999.0,62,-99.99,,,0.00,weatherlink.com 1.10,2013-09-22 15:06:00,
2013-09-22 10:22:00,72.8,58.0,30.65,NNW,338,5.0,-999.0,61,-99.99,,,0.00,weatherlink.com 1.10,2013-09-22 15:22:00,
2013-09-22 10:37:00,74.5,60.0,30.65,NNW,332,4.0,-999.0,60,-99.99,,,0.00,weatherlink.com 1.10,2013-09-22 15:37:00,
2013-09-22 10:52:00,74.9,59.0,30.66,NW,321,6.0,-999.0,58,-99.99,,,0.00,weatherlink.com 1.10,2013-09-22 15:52:00,
2013-09-22 11:07:00,75.8,60.0,30.66,North,360,4.0,-999.0,58,-99.99,,,0.00,weatherlink.com 1.10,2013-09-22 16:07:00,
2013-09-22 11:22:00,76.0,60.0,30.65,NNW,327,2.0,-999.0,57,-99.99,,,0.00,weatherlink.com 1.10,2013-09-22 16:22:00,
2013-09-22 11:37:00,76.8,60.0,30.64,NNW,328,5.0,-999.0,56,-99.99,,,0.00,weatherlink.com 1.10,2013-09-22 16:37:00,
2013-09-22 11:52:00,77.3,60.0,30.65,NW,315,2.0,-999.0,56,-99.99,,,0.00,weatherlink.com 1.10,2013-09-22 16:52:00,
2013-09-22 12:07:00,78.2,60.0,30.64,NW,316,1.0,-999.0,53,-99.99,,,0.00,weatherlink.com 1.10,2013-09-22 17:07:00,
2013-09-22 12:22:00,78.7,57.0,30.64,WNW,296,5.0,-999.0,48,-99.99,,,0.00,weatherlink.com 1.10,2013-09-22 17:22:00,
2013-09-22 12:37:00,79.7,57.0,30.63,NW,305,3.0,-999.0,46,-99.99,,,0.00,weatherlink.com 1.10,2013-09-22 17:37:00,
2013-09-22 12:52:00,80.5,56.0,30.62,NW,304,3.0,-999.0,43,-99.99,,,0.00,weatherlink.com 1.10,2013-09-22 17:52:00,
2013-09-22 13:07:00,81.0,57.0,30.61,North,9,4.0,-999.0,44,-99.99,,,0.00,weatherlink.com 1.10,2013-09-22 18:07:00,
2013-09-22 13:22:00,81.0,58.0,30.61,North,360,7.0,-999.0,45,-99.99,,,0.00,weatherlink.com 1.10,2013-09-22 18:22:00,
2013-09-22 13:37:00,81.9,56.0,30.60,NNW,332,5.0,-999.0,41,-99.99,,,0.00,weatherlink.com 1.10,2013-09-22 18:37:00,
2013-09-22 13:52:00,82.4,56.0,30.59,NNW,335,4.0,-999.0,40,-99.99,,,0.00,weatherlink.com 1.10,2013-09-22 18:52:00,
2013-09-22 14:07:00,82.7,55.0,30.58,NW,323,8.0,-999.0,38,-99.99,,,0.00,weatherlink.com 1.10,2013-09-22 19:07:00,
2013-09-22 14:22:00,82.9,53.0,30.58,NW,321,6.0,-999.0,36,-99.99,,,0.00,weatherlink.com 1.10,2013-09-22 19:22:00,
2013-09-22 14:36:00,83.1,56.0,30.57,NNW,328,3.0,-999.0,39,-99.99,,,0.00,weatherlink.com 1.10,2013-09-22 19:36:00,
2013-09-22 14:52:00,83.8,55.0,30.57,North,355,5.0,-999.0,37,-99.99,,,0.00,weatherlink.com 1.10,2013-09-22 19:52:00,
2013-09-22 15:07:00,84.0,54.0,30.56,NE,42,7.0,-999.0,35,-99.99,,,0.00,weatherlink.com 1.10,2013-09-22 20:07:00,
2013-09-22 15:22:00,83.8,54.0,30.56,NNW,336,7.0,-999.0,36,-99.99,,,0.00,weatherlink.com 1.10,2013-09-22 20:22:00,
2013-09-22 15:36:00,83.9,55.0,30.55,West,272,2.0,-999.0,37,-99.99,,,0.00,weatherlink.com 1.10,2013-09-22 20:36:00,
2013-09-22 15:51:00,84.2,54.0,30.54,NNW,327,6.0,-999.0,35,-99.99,,,0.00,weatherlink.com 1.10,2013-09-22 20:51:00,
2013-09-22 16:06:00,84.0,54.0,30.54,NW,305,4.0,-999.0,36,-99.99,,,0.00,weatherlink.com 1.10,2013-09-22 21:06:00,
2013-09-22 16:22:00,84.3,54.0,30.53,WNW,301,2.0,-999.0,35,-99.99,,,0.00,weatherlink.com 1.10,2013-09-22 21:22:00,
2013-09-22 16:36:00,84.3,55.0,30.53,WNW,297,4.0,-999.0,36,-99.99,,,0.00,weatherlink.com 1.10,2013-09-22 21:36:00,
2013-09-22 16:51:00,84.5,55.0,30.53,NNE,21,2.0,-999.0,36,-99.99,,,0.00,weatherlink.com 1.10,2013-09-22 21:51:00,
2013-09-22 17:06:00,84.2,56.0,30.52,North,350,3.0,-999.0,38,-99.99,,,0.00,weatherlink.com 1.10,2013-09-22 22:06:00,
2013-09-22 17:23:00,84.0,55.0,30.52,NW,325,7.0,-999.0,37,-99.99,,,0.00,weatherlink.com 1.10,2013-09-22 22:23:00,
2013-09-22 17:37:00,83.7,53.0,30.52,NW,326,5.0,-999.0,35,-99.99,,,0.00,weatherlink.com 1.10,2013-09-22 22:37:00,
2013-09-22 17:52:00,83.5,55.0,30.52,WNW,294,3.0,-999.0,37,-99.99,,,0.00,weatherlink.com 1.10,2013-09-22 22:52:00,
2013-09-22 18:07:00,82.9,55.0,30.52,WNW,300,2.0,-999.0,38,-99.99,,,0.00,weatherlink.com 1.10,2013-09-22 23:07:00,
2013-09-22 18:22:00,82.5,54.0,30.52,WNW,302,3.0,-999.0,37,-99.99,,,0.00,weatherlink.com 1.10,2013-09-22 23:22:00,
2013-09-22 18:36:00,81.7,53.0,30.53,NW,316,2.0,-999.0,37,-99.99,,,0.00,weatherlink.com 1.10,2013-09-22 23:36:00,
2013-09-22 18:51:00,81.5,54.0,30.53,NW,304,4.0,-999.0,39,-99.99,,,0.00,weatherlink.com 1.10,2013-09-22 23:51:00,
2013-09-22 19:06:00,81.2,52.0,30.53,NW,323,1.0,-999.0,37,-99.99,,,0.00,weatherlink.com 1.10,2013-09-23 00:06:00,
2013-09-22 19:22:00,80.7,53.0,30.54,NW,305,0.0,-999.0,39,-99.99,,,0.00,weatherlink.com 1.10,2013-09-23 00:22:00,
2013-09-22 19:36:00,80.2,55.0,30.54,NW,305,0.0,-999.0,42,-99.99,,,0.00,weatherlink.com 1.10,2013-09-23 00:36:00,
2013-09-22 19:51:00,79.4,59.0,30.54,NW,305,0.0,-999.0,50,-99.99,,,0.00,weatherlink.com 1.10,2013-09-23 00:51:00,
2013-09-22 20:24:00,78.1,58.0,30.55,NW,305,0.0,-999.0,50,-99.99,,,0.00,weatherlink.com 1.10,2013-09-23 01:24:00,
2013-09-22 20:37:00,76.9,59.0,30.55,NW,305,0.0,-999.0,54,-99.99,,,0.00,weatherlink.com 1.10,2013-09-23 01:37:00,
2013-09-22 20:52:00,76.2,59.0,30.56,NW,305,0.0,-999.0,55,-99.99,,,0.00,weatherlink.com 1.10,2013-09-23 01:52:00,
2013-09-22 21:07:00,76.0,58.0,30.56,NW,305,0.0,-999.0,54,-99.99,,,0.00,weatherlink.com 1.10,2013-09-23 02:07:00,
2013-09-22 21:24:00,76.1,56.0,30.56,NW,305,0.0,-999.0,50,-99.99,,,0.00,weatherlink.com 1.10,2013-09-23 02:24:00,
2013-09-22 21:37:00,76.3,56.0,30.56,NW,305,0.0,-999.0,50,-99.99,,,0.00,weatherlink.com 1.10,2013-09-23 02:37:00,
2013-09-22 21:52:00,76.3,56.0,30.56,NW,305,0.0,-999.0,49,-99.99,,,0.00,weatherlink.com 1.10,2013-09-23 02:52:00,
2013-09-22 22:07:00,76.2,55.0,30.57,NW,305,0.0,-999.0,48,-99.99,,,0.00,weatherlink.com 1.10,2013-09-23 03:07:00,
2013-09-22 22:23:00,75.9,55.0,30.57,NW,305,0.0,-999.0,48,-99.99,,,0.00,weatherlink.com 1.10,2013-09-23 03:23:00,
2013-09-22 22:37:00,75.3,57.0,30.57,NW,305,0.0,-999.0,54,-99.99,,,0.00,weatherlink.com 1.10,2013-09-23 03:37:00,
2013-09-22 22:52:00,74.2,58.0,30.57,NW,305,0.0,-999.0,58,-99.99,,,0.00,weatherlink.com 1.10,2013-09-23 03:52:00,
2013-09-22 23:07:00,72.4,59.0,30.57,NW,305,0.0,-999.0,63,-99.99,,,0.00,weatherlink.com 1.10,2013-09-23 04:07:00,
2013-09-22 23:22:00,71.2,57.0,30.57,NW,305,0.0,-999.0,62,-99.99,,,0.00,weatherlink.com 1.10,2013-09-23 04:22:00,
2013-09-22 23:37:00,69.9,58.0,30.57,NW,305,0.0,-999.0,67,-99.99,,,0.00,weatherlink.com 1.10,2013-09-23 04:37:00,
2013-09-22 23:52:00,68.9,58.0,30.57,NW,305,0.0,-999.0,68,-99.99,,,0.00,weatherlink.com 1.10,2013-09-23 04:52:00,